sensor_id;sensor_type;location;lat;lon;timestamp;pressure;altitude;pressure_sealevel;temperature;humidity
31092;BME280;67728;53.122;12.776;2023-05-12T00:00:41;100979.16;;;13.72;59.00
31092;BME280;67728;53.122;12.776;2023-05-12T00:02:12;100979.88;;;13.77;59.56
31092;BME280;67728;53.122;12.776;2023-05-12T00:03:44;100985.03;;;13.81;59.17
31092;BME280;67728;53.122;12.776;2023-05-12T00:05:15;100989.50;;;13.75;58.42
31092;BME280;67728;53.122;12.776;2023-05-12T00:06:46;100978.91;;;13.82;59.28
31092;BME280;67728;53.122;12.776;2023-05-12T00:08:18;100978.69;;;13.55;60.90
31092;BME280;67728;53.122;12.776;2023-05-12T00:09:50;100969.88;;;13.61;59.57
31092;BME280;67728;53.122;12.776;2023-05-12T00:11:22;100984.88;;;13.51;59.99
31092;BME280;67728;53.122;12.776;2023-05-12T00:12:53;100987.34;;;13.56;60.22
31092;BME280;67728;53.122;12.776;2023-05-12T00:14:24;100978.78;;;13.51;61.15
31092;BME280;67728;53.122;12.776;2023-05-12T00:15:56;100980.59;;;13.49;60.19
31092;BME280;67728;53.122;12.776;2023-05-12T00:17:28;100986.00;;;13.40;62.58
31092;BME280;67728;53.122;12.776;2023-05-12T00:18:58;100986.25;;;13.29;62.34
31092;BME280;67728;53.122;12.776;2023-05-12T00:20:30;100984.25;;;13.40;62.24
31092;BME280;67728;53.122;12.776;2023-05-12T00:22:02;100977.69;;;13.23;61.90
31092;BME280;67728;53.122;12.776;2023-05-12T00:23:33;100985.56;;;13.21;62.32
31092;BME280;67728;53.122;12.776;2023-05-12T00:25:07;100988.91;;;13.26;61.76
31092;BME280;67728;53.122;12.776;2023-05-12T00:26:39;100983.63;;;13.29;59.53
31092;BME280;67728;53.122;12.776;2023-05-12T00:28:09;100984.81;;;13.16;61.80
31092;BME280;67728;53.122;12.776;2023-05-12T00:29:41;100989.91;;;13.21;62.63
31092;BME280;67728;53.122;12.776;2023-05-12T00:31:12;100990.94;;;13.13;62.83
31092;BME280;67728;53.122;12.776;2023-05-12T00:32:44;100990.78;;;13.19;58.91
31092;BME280;67728;53.122;12.776;2023-05-12T00:34:15;100987.53;;;13.10;62.00
31092;BME280;67728;53.122;12.776;2023-05-12T00:35:46;100986.66;;;13.09;61.38
31092;BME280;67728;53.122;12.776;2023-05-12T00:37:17;100990.50;;;12.92;63.57
31092;BME280;67728;53.122;12.776;2023-05-12T00:38:49;100994.56;;;13.05;61.54
31092;BME280;67728;53.122;12.776;2023-05-12T00:40:22;100989.53;;;12.96;62.15
31092;BME280;67728;53.122;12.776;2023-05-12T00:41:54;100995.22;;;13.16;59.11
31092;BME280;67728;53.122;12.776;2023-05-12T00:43:26;100999.72;;;13.08;61.00
31092;BME280;67728;53.122;12.776;2023-05-12T00:44:57;100990.03;;;13.14;60.76
31092;BME280;67728;53.122;12.776;2023-05-12T00:46:28;100991.16;;;13.01;60.46
31092;BME280;67728;53.122;12.776;2023-05-12T00:47:59;100994.72;;;12.96;61.89
31092;BME280;67728;53.122;12.776;2023-05-12T00:49:31;100993.81;;;12.98;61.66
31092;BME280;67728;53.122;12.776;2023-05-12T00:51:03;100993.00;;;12.96;62.20
31092;BME280;67728;53.122;12.776;2023-05-12T00:52:34;100998.31;;;12.92;58.68
31092;BME280;67728;53.122;12.776;2023-05-12T00:54:06;100993.38;;;12.77;62.47
31092;BME280;67728;53.122;12.776;2023-05-12T00:55:40;100996.03;;;12.74;64.14
31092;BME280;67728;53.122;12.776;2023-05-12T00:57:12;100995.34;;;12.66;63.13
31092;BME280;67728;53.122;12.776;2023-05-12T00:58:43;100987.31;;;12.76;64.18
31092;BME280;67728;53.122;12.776;2023-05-12T01:00:15;100986.56;;;12.71;62.52
31092;BME280;67728;53.122;12.776;2023-05-12T01:01:48;100990.88;;;12.72;63.74
31092;BME280;67728;53.122;12.776;2023-05-12T01:03:19;100986.72;;;12.64;64.64
31092;BME280;67728;53.122;12.776;2023-05-12T01:04:50;100981.69;;;12.54;63.40
31092;BME280;67728;53.122;12.776;2023-05-12T01:06:26;100987.06;;;12.45;63.26
31092;BME280;67728;53.122;12.776;2023-05-12T01:08:00;100986.16;;;12.48;63.39
31092;BME280;67728;53.122;12.776;2023-05-12T01:09:32;100988.50;;;12.62;61.49
31092;BME280;67728;53.122;12.776;2023-05-12T01:11:05;100987.28;;;12.33;64.79
31092;BME280;67728;53.122;12.776;2023-05-12T01:12:36;100989.13;;;12.28;64.07
31092;BME280;67728;53.122;12.776;2023-05-12T01:14:07;100986.38;;;12.36;62.81
31092;BME280;67728;53.122;12.776;2023-05-12T01:15:43;100984.69;;;12.35;63.04
31092;BME280;67728;53.122;12.776;2023-05-12T01:17:18;100995.03;;;12.38;62.51
31092;BME280;67728;53.122;12.776;2023-05-12T01:18:53;100990.81;;;12.31;62.47
31092;BME280;67728;53.122;12.776;2023-05-12T01:20:25;100987.53;;;12.20;62.27
31092;BME280;67728;53.122;12.776;2023-05-12T01:21:57;100992.91;;;12.11;64.97
31092;BME280;67728;53.122;12.776;2023-05-12T01:23:33;100990.13;;;12.21;63.08
31092;BME280;67728;53.122;12.776;2023-05-12T01:25:09;100988.50;;;12.16;66.12
31092;BME280;67728;53.122;12.776;2023-05-12T01:26:42;100988.31;;;11.76;65.09
31092;BME280;67728;53.122;12.776;2023-05-12T01:28:14;100995.19;;;11.77;67.65
31092;BME280;67728;53.122;12.776;2023-05-12T01:29:46;100999.47;;;11.81;65.12
31092;BME280;67728;53.122;12.776;2023-05-12T01:31:18;100998.41;;;11.94;67.44
31092;BME280;67728;53.122;12.776;2023-05-12T01:32:50;100993.94;;;12.00;67.03
31092;BME280;67728;53.122;12.776;2023-05-12T01:34:22;100996.88;;;11.81;65.58
31092;BME280;67728;53.122;12.776;2023-05-12T01:35:53;100998.69;;;11.74;65.34
31092;BME280;67728;53.122;12.776;2023-05-12T01:37:24;100994.97;;;11.90;63.53
31092;BME280;67728;53.122;12.776;2023-05-12T01:38:57;101003.50;;;12.00;65.52
31092;BME280;67728;53.122;12.776;2023-05-12T01:40:28;100993.50;;;11.74;66.00
31092;BME280;67728;53.122;12.776;2023-05-12T01:42:01;101000.41;;;11.77;67.23
31092;BME280;67728;53.122;12.776;2023-05-12T01:43:33;100999.56;;;11.73;66.74
31092;BME280;67728;53.122;12.776;2023-05-12T01:45:06;101004.59;;;11.85;66.39
31092;BME280;67728;53.122;12.776;2023-05-12T01:46:37;101005.25;;;11.98;66.17
31092;BME280;67728;53.122;12.776;2023-05-12T01:48:08;101003.63;;;11.91;66.36
31092;BME280;67728;53.122;12.776;2023-05-12T01:49:40;101014.38;;;11.65;66.72
31092;BME280;67728;53.122;12.776;2023-05-12T01:51:11;101009.34;;;11.56;67.89
31092;BME280;67728;53.122;12.776;2023-05-12T01:52:42;101013.56;;;11.63;67.69
31092;BME280;67728;53.122;12.776;2023-05-12T01:54:15;101009.22;;;11.64;66.77
31092;BME280;67728;53.122;12.776;2023-05-12T01:55:47;101014.47;;;11.61;67.05
31092;BME280;67728;53.122;12.776;2023-05-12T01:57:19;101016.56;;;11.36;68.49
31092;BME280;67728;53.122;12.776;2023-05-12T01:58:50;101016.84;;;11.16;67.14
31092;BME280;67728;53.122;12.776;2023-05-12T02:00:21;101016.88;;;11.13;68.13
31092;BME280;67728;53.122;12.776;2023-05-12T02:01:53;101013.16;;;11.31;69.25
31092;BME280;67728;53.122;12.776;2023-05-12T02:03:23;101026.41;;;11.11;69.83
31092;BME280;67728;53.122;12.776;2023-05-12T02:04:55;101023.66;;;11.23;69.09
31092;BME280;67728;53.122;12.776;2023-05-12T02:06:27;101022.97;;;11.09;69.11
31092;BME280;67728;53.122;12.776;2023-05-12T02:07:57;101023.88;;;11.07;68.48
31092;BME280;67728;53.122;12.776;2023-05-12T02:09:29;101021.16;;;11.16;67.64
31092;BME280;67728;53.122;12.776;2023-05-12T02:11:04;101013.41;;;11.11;68.54
31092;BME280;67728;53.122;12.776;2023-05-12T02:12:37;101018.72;;;11.05;67.51
31092;BME280;67728;53.122;12.776;2023-05-12T02:14:09;101018.72;;;11.05;68.92
31092;BME280;67728;53.122;12.776;2023-05-12T02:15:41;101021.31;;;11.04;68.49
31092;BME280;67728;53.122;12.776;2023-05-12T02:17:11;101020.41;;;11.06;70.80
31092;BME280;67728;53.122;12.776;2023-05-12T02:18:43;101022.16;;;11.06;69.53
31092;BME280;67728;53.122;12.776;2023-05-12T02:20:14;101023.00;;;11.08;70.05
31092;BME280;67728;53.122;12.776;2023-05-12T02:21:45;101023.00;;;11.06;69.90
31092;BME280;67728;53.122;12.776;2023-05-12T02:23:17;101027.34;;;11.06;70.02
31092;BME280;67728;53.122;12.776;2023-05-12T02:24:48;101017.69;;;11.17;72.25
31092;BME280;67728;53.122;12.776;2023-05-12T02:26:20;101024.78;;;11.04;71.35
31092;BME280;67728;53.122;12.776;2023-05-12T02:27:53;101023.00;;;11.08;71.29
31092;BME280;67728;53.122;12.776;2023-05-12T02:29:25;101021.34;;;11.02;72.19
31092;BME280;67728;53.122;12.776;2023-05-12T02:30:56;101022.84;;;11.20;71.83
31092;BME280;67728;53.122;12.776;2023-05-12T02:32:28;101023.91;;;11.05;69.80
31092;BME280;67728;53.122;12.776;2023-05-12T02:33:59;101026.66;;;10.92;69.72
31092;BME280;67728;53.122;12.776;2023-05-12T02:35:30;101022.16;;;11.06;69.96
31092;BME280;67728;53.122;12.776;2023-05-12T02:37:02;101025.09;;;10.78;70.11
31092;BME280;67728;53.122;12.776;2023-05-12T02:38:33;101020.78;;;10.76;68.93
31092;BME280;67728;53.122;12.776;2023-05-12T02:40:06;101022.66;;;10.65;70.05
31092;BME280;67728;53.122;12.776;2023-05-12T02:41:38;101027.75;;;10.71;70.61
31092;BME280;67728;53.122;12.776;2023-05-12T02:43:10;101025.38;;;10.51;71.58
31092;BME280;67728;53.122;12.776;2023-05-12T02:44:42;101022.13;;;10.33;70.84
31092;BME280;67728;53.122;12.776;2023-05-12T02:46:13;101019.44;;;10.39;70.55
31092;BME280;67728;53.122;12.776;2023-05-12T02:47:44;101032.66;;;10.07;71.00
31092;BME280;67728;53.122;12.776;2023-05-12T02:49:16;101032.59;;;10.20;71.14
31092;BME280;67728;53.122;12.776;2023-05-12T02:50:47;101025.53;;;10.36;72.15
31092;BME280;67728;53.122;12.776;2023-05-12T02:52:18;101030.03;;;10.17;71.79
31092;BME280;67728;53.122;12.776;2023-05-12T02:53:51;101027.44;;;10.14;71.51
31092;BME280;67728;53.122;12.776;2023-05-12T02:55:22;101024.81;;;10.20;73.06
31092;BME280;67728;53.122;12.776;2023-05-12T02:56:53;101023.88;;;10.29;73.07
31092;BME280;67728;53.122;12.776;2023-05-12T02:58:28;101030.91;;;10.15;74.21
31092;BME280;67728;53.122;12.776;2023-05-12T03:00:00;101033.53;;;10.13;73.85
31092;BME280;67728;53.122;12.776;2023-05-12T03:01:31;101026.66;;;10.03;73.30
31092;BME280;67728;53.122;12.776;2023-05-12T03:03:02;101025.72;;;10.09;72.09
31092;BME280;67728;53.122;12.776;2023-05-12T03:04:34;101030.09;;;10.07;71.13
31092;BME280;67728;53.122;12.776;2023-05-12T03:06:05;101035.22;;;10.11;72.60
31092;BME280;67728;53.122;12.776;2023-05-12T03:07:37;101027.50;;;10.05;72.67
31092;BME280;67728;53.122;12.776;2023-05-12T03:09:08;101032.63;;;10.11;73.36
31092;BME280;67728;53.122;12.776;2023-05-12T03:10:40;101031.78;;;10.09;73.51
31092;BME280;67728;53.122;12.776;2023-05-12T03:12:13;101031.06;;;9.91;73.37
31092;BME280;67728;53.122;12.776;2023-05-12T03:13:46;101035.34;;;9.99;73.61
31092;BME280;67728;53.122;12.776;2023-05-12T03:15:18;101033.53;;;10.06;74.24
31092;BME280;67728;53.122;12.776;2023-05-12T03:16:48;101027.56;;;9.98;74.75
31092;BME280;67728;53.122;12.776;2023-05-12T03:18:20;101030.13;;;10.01;73.10
31092;BME280;67728;53.122;12.776;2023-05-12T03:19:51;101033.53;;;10.07;73.58
31092;BME280;67728;53.122;12.776;2023-05-12T03:21:22;101040.50;;;10.02;73.93
31092;BME280;67728;53.122;12.776;2023-05-12T03:22:54;101032.84;;;9.86;72.43
31092;BME280;67728;53.122;12.776;2023-05-12T03:24:25;101032.72;;;10.02;73.29
31092;BME280;67728;53.122;12.776;2023-05-12T03:25:56;101036.25;;;9.94;74.22
31092;BME280;67728;53.122;12.776;2023-05-12T03:27:28;101038.91;;;9.83;74.09
31092;BME280;67728;53.122;12.776;2023-05-12T03:29:01;101038.06;;;9.81;73.80
31092;BME280;67728;53.122;12.776;2023-05-12T03:30:33;101051.00;;;9.83;72.31
31092;BME280;67728;53.122;12.776;2023-05-12T03:32:05;101041.59;;;9.73;71.58
31092;BME280;67728;53.122;12.776;2023-05-12T03:33:37;101040.69;;;9.75;72.84
31092;BME280;67728;53.122;12.776;2023-05-12T03:35:09;101037.22;;;9.78;74.00
31092;BME280;67728;53.122;12.776;2023-05-12T03:36:41;101039.72;;;9.90;72.77
31092;BME280;67728;53.122;12.776;2023-05-12T03:38:12;101038.00;;;9.89;70.58
31092;BME280;67728;53.122;12.776;2023-05-12T03:39:44;101036.28;;;9.88;71.08
31092;BME280;67728;53.122;12.776;2023-05-12T03:41:15;101039.78;;;9.84;73.30
31092;BME280;67728;53.122;12.776;2023-05-12T03:42:47;101042.31;;;9.90;73.52
31092;BME280;67728;53.122;12.776;2023-05-12T03:44:20;101041.50;;;9.82;75.08
31092;BME280;67728;53.122;12.776;2023-05-12T03:45:51;101047.56;;;9.76;74.29
31092;BME280;67728;53.122;12.776;2023-05-12T03:47:23;101037.19;;;9.82;74.97
31092;BME280;67728;53.122;12.776;2023-05-12T03:48:54;101042.41;;;9.76;75.49
31092;BME280;67728;53.122;12.776;2023-05-12T03:50:26;101039.00;;;9.73;74.96
31092;BME280;67728;53.122;12.776;2023-05-12T03:51:57;101045.84;;;9.81;72.06
31092;BME280;67728;53.122;12.776;2023-05-12T03:53:29;101047.53;;;9.82;73.61
31092;BME280;67728;53.122;12.776;2023-05-12T03:55:00;101046.72;;;9.77;72.08
31092;BME280;67728;53.122;12.776;2023-05-12T03:56:31;101044.91;;;9.88;73.10
31092;BME280;67728;53.122;12.776;2023-05-12T03:58:03;101043.16;;;9.93;73.08
31092;BME280;67728;53.122;12.776;2023-05-12T03:59:35;101045.75;;;9.90;72.99
31092;BME280;67728;53.122;12.776;2023-05-12T04:01:07;101048.34;;;9.90;72.64
31092;BME280;67728;53.122;12.776;2023-05-12T04:02:39;101050.88;;;10.02;74.19
31092;BME280;67728;53.122;12.776;2023-05-12T04:04:11;101049.16;;;9.95;72.71
31092;BME280;67728;53.122;12.776;2023-05-12T04:05:42;101047.34;;;10.06;72.66
31092;BME280;67728;53.122;12.776;2023-05-12T04:07:14;101055.22;;;9.96;73.64
31092;BME280;67728;53.122;12.776;2023-05-12T04:08:45;101055.16;;;10.00;74.51
31092;BME280;67728;53.122;12.776;2023-05-12T04:10:16;101050.09;;;9.91;73.98
31092;BME280;67728;53.122;12.776;2023-05-12T04:11:48;101054.38;;;9.92;73.88
31092;BME280;67728;53.122;12.776;2023-05-12T04:13:19;101050.03;;;9.97;74.24
31092;BME280;67728;53.122;12.776;2023-05-12T04:14:51;101056.84;;;10.06;75.24
31092;BME280;67728;53.122;12.776;2023-05-12T04:16:23;101054.25;;;10.10;73.35
31092;BME280;67728;53.122;12.776;2023-05-12T04:17:54;101060.31;;;10.12;73.43
31092;BME280;67728;53.122;12.776;2023-05-12T04:19:25;101057.66;;;10.18;72.81
31092;BME280;67728;53.122;12.776;2023-05-12T04:20:57;101060.31;;;10.12;72.44
31092;BME280;67728;53.122;12.776;2023-05-12T04:22:28;101055.97;;;10.14;74.37
31092;BME280;67728;53.122;12.776;2023-05-12T04:24:00;101063.75;;;10.08;73.33
31092;BME280;67728;53.122;12.776;2023-05-12T04:25:32;101062.09;;;10.03;74.52
31092;BME280;67728;53.122;12.776;2023-05-12T04:27:03;101066.41;;;9.98;74.40
31092;BME280;67728;53.122;12.776;2023-05-12T04:28:35;101061.22;;;10.02;73.04
31092;BME280;67728;53.122;12.776;2023-05-12T04:30:08;101057.69;;;10.15;72.30
31092;BME280;67728;53.122;12.776;2023-05-12T04:31:40;101065.50;;;10.06;73.61
31092;BME280;67728;53.122;12.776;2023-05-12T04:33:11;101065.50;;;10.08;72.76
31092;BME280;67728;53.122;12.776;2023-05-12T04:34:43;101072.41;;;10.10;72.43
31092;BME280;67728;53.122;12.776;2023-05-12T04:36:15;101066.25;;;10.22;72.39
31092;BME280;67728;53.122;12.776;2023-05-12T04:37:46;101068.91;;;10.17;73.11
31092;BME280;67728;53.122;12.776;2023-05-12T04:39:18;101074.19;;;10.01;72.57
31092;BME280;67728;53.122;12.776;2023-05-12T04:40:49;101071.53;;;10.10;72.39
31092;BME280;67728;53.122;12.776;2023-05-12T04:42:21;101070.63;;;10.17;72.12
31092;BME280;67728;53.122;12.776;2023-05-12T04:43:53;101077.50;;;10.24;72.11
31092;BME280;67728;53.122;12.776;2023-05-12T04:45:26;101072.25;;;10.32;71.30
31092;BME280;67728;53.122;12.776;2023-05-12T04:46:57;101074.78;;;10.36;70.83
31092;BME280;67728;53.122;12.776;2023-05-12T04:48:29;101077.34;;;10.39;71.30
31092;BME280;67728;53.122;12.776;2023-05-12T04:50:00;101073.00;;;10.46;71.54
31092;BME280;67728;53.122;12.776;2023-05-12T04:51:31;101079.06;;;10.42;70.91
31092;BME280;67728;53.122;12.776;2023-05-12T04:53:03;101078.25;;;10.37;71.78
31092;BME280;67728;53.122;12.776;2023-05-12T04:54:34;101087.59;;;10.53;70.99
31092;BME280;67728;53.122;12.776;2023-05-12T04:56:06;101084.34;;;10.33;71.66
31092;BME280;67728;53.122;12.776;2023-05-12T04:57:38;101091.13;;;10.47;71.03
31092;BME280;67728;53.122;12.776;2023-05-12T04:59:10;101084.22;;;10.45;71.30
31092;BME280;67728;53.122;12.776;2023-05-12T05:00:46;101085.00;;;10.56;71.39
31092;BME280;67728;53.122;12.776;2023-05-12T05:02:17;101087.53;;;10.60;71.35
31092;BME280;67728;53.122;12.776;2023-05-12T05:03:49;101099.69;;;10.57;71.19
31092;BME280;67728;53.122;12.776;2023-05-12T05:05:21;101090.09;;;10.65;71.54
31092;BME280;67728;53.122;12.776;2023-05-12T05:06:52;101096.03;;;10.74;70.67
31092;BME280;67728;53.122;12.776;2023-05-12T05:08:24;101101.25;;;10.71;71.70
31092;BME280;67728;53.122;12.776;2023-05-12T05:09:56;101095.09;;;10.83;71.57
31092;BME280;67728;53.122;12.776;2023-05-12T05:11:27;101093.41;;;10.80;71.96
31092;BME280;67728;53.122;12.776;2023-05-12T05:12:59;101094.13;;;10.90;71.43
31092;BME280;67728;53.122;12.776;2023-05-12T05:14:31;101094.94;;;10.95;70.48
31092;BME280;67728;53.122;12.776;2023-05-12T05:16:04;101094.84;;;11.04;69.49
31092;BME280;67728;53.122;12.776;2023-05-12T05:17:36;101100.81;;;11.12;68.43
31092;BME280;67728;53.122;12.776;2023-05-12T05:19:07;101095.59;;;11.14;68.36
31092;BME280;67728;53.122;12.776;2023-05-12T05:20:39;101100.72;;;11.20;69.04
31092;BME280;67728;53.122;12.776;2023-05-12T05:22:10;101101.53;;;11.26;69.04
31092;BME280;67728;53.122;12.776;2023-05-12T05:23:42;101109.28;;;11.28;69.81
31092;BME280;67728;53.122;12.776;2023-05-12T05:25:14;101099.72;;;11.31;67.87
31092;BME280;67728;53.122;12.776;2023-05-12T05:26:46;101106.63;;;11.34;67.96
31092;BME280;67728;53.122;12.776;2023-05-12T05:28:18;101104.72;;;11.47;67.24
31092;BME280;67728;53.122;12.776;2023-05-12T05:29:49;101107.16;;;11.59;68.74
31092;BME280;67728;53.122;12.776;2023-05-12T05:31:22;101108.78;;;11.69;65.83
31092;BME280;67728;53.122;12.776;2023-05-12T05:32:54;101114.00;;;11.67;66.56
31092;BME280;67728;53.122;12.776;2023-05-12T05:34:25;101109.50;;;11.80;64.97
31092;BME280;67728;53.122;12.776;2023-05-12T05:35:57;101114.75;;;11.77;69.51
31092;BME280;67728;53.122;12.776;2023-05-12T05:37:29;101111.38;;;11.69;69.72
31092;BME280;67728;53.122;12.776;2023-05-12T05:39:01;101109.47;;;11.81;67.50
31092;BME280;67728;53.122;12.776;2023-05-12T05:40:33;101117.97;;;11.92;67.01
31092;BME280;67728;53.122;12.776;2023-05-12T05:42:05;101111.34;;;12.28;65.05
31092;BME280;67728;53.122;12.776;2023-05-12T05:43:37;101116.81;;;12.12;67.95
31092;BME280;67728;53.122;12.776;2023-05-12T05:45:09;101117.59;;;12.18;64.90
31092;BME280;67728;53.122;12.776;2023-05-12T05:46:42;101125.91;;;12.40;63.60
31092;BME280;67728;53.122;12.776;2023-05-12T05:48:14;101110.13;;;12.49;60.62
31092;BME280;67728;53.122;12.776;2023-05-12T05:49:45;101122.22;;;12.53;64.94
31092;BME280;67728;53.122;12.776;2023-05-12T05:51:17;101123.00;;;12.59;61.62
31092;BME280;67728;53.122;12.776;2023-05-12T05:52:49;101111.72;;;12.57;64.94
31092;BME280;67728;53.122;12.776;2023-05-12T05:54:22;101118.63;;;12.60;62.58
31092;BME280;67728;53.122;12.776;2023-05-12T05:55:53;101115.34;;;12.50;63.21
31092;BME280;67728;53.122;12.776;2023-05-12T05:57:25;101122.03;;;12.64;62.72
31092;BME280;67728;53.122;12.776;2023-05-12T05:58:57;101119.16;;;12.79;61.19
31092;BME280;67728;53.122;12.776;2023-05-12T06:00:31;101124.06;;;12.97;60.42
31092;BME280;67728;53.122;12.776;2023-05-12T06:02:05;101120.78;;;12.84;62.19
31092;BME280;67728;53.122;12.776;2023-05-12T06:03:37;101125.56;;;13.08;59.21
31092;BME280;67728;53.122;12.776;2023-05-12T06:05:08;101124.69;;;13.09;60.03
31092;BME280;67728;53.122;12.776;2023-05-12T06:06:41;101126.44;;;13.10;60.63
31092;BME280;67728;53.122;12.776;2023-05-12T06:08:13;101121.59;;;13.34;58.23
31092;BME280;67728;53.122;12.776;2023-05-12T06:09:44;101125.88;;;13.38;58.20
31092;BME280;67728;53.122;12.776;2023-05-12T06:11:16;101125.66;;;13.48;56.89
31092;BME280;67728;53.122;12.776;2023-05-12T06:12:48;101127.34;;;13.49;57.92
31092;BME280;67728;53.122;12.776;2023-05-12T06:14:20;101137.78;;;13.49;58.01
31092;BME280;67728;53.122;12.776;2023-05-12T06:15:52;101127.31;;;13.52;58.57
31092;BME280;67728;53.122;12.776;2023-05-12T06:17:25;101127.88;;;13.66;56.47
31092;BME280;67728;53.122;12.776;2023-05-12T06:18:56;101127.81;;;13.69;59.02
31092;BME280;67728;53.122;12.776;2023-05-12T06:20:28;101133.03;;;13.68;58.23
31092;BME280;67728;53.122;12.776;2023-05-12T06:22:00;101132.97;;;13.72;57.65
31092;BME280;67728;53.122;12.776;2023-05-12T06:23:31;101134.75;;;13.70;57.32
31092;BME280;67728;53.122;12.776;2023-05-12T06:25:03;101140.56;;;13.82;58.50
31092;BME280;67728;53.122;12.776;2023-05-12T06:26:35;101137.63;;;13.97;59.02
31092;BME280;67728;53.122;12.776;2023-05-12T06:28:07;101134.22;;;13.93;59.53
31092;BME280;67728;53.122;12.776;2023-05-12T06:29:39;101136.53;;;14.07;57.76
31092;BME280;67728;53.122;12.776;2023-05-12T06:31:10;101140.50;;;14.23;54.92
31092;BME280;67728;53.122;12.776;2023-05-12T06:32:43;101136.09;;;14.25;56.41
31092;BME280;67728;53.122;12.776;2023-05-12T06:34:15;101137.75;;;14.27;55.81
31092;BME280;67728;53.122;12.776;2023-05-12T06:35:46;101139.13;;;14.44;55.36
31092;BME280;67728;53.122;12.776;2023-05-12T06:37:17;101141.06;;;14.37;56.30
31092;BME280;67728;53.122;12.776;2023-05-12T06:38:49;101149.09;;;14.63;56.53
31092;BME280;67728;53.122;12.776;2023-05-12T06:40:21;101148.22;;;14.64;58.05
31092;BME280;67728;53.122;12.776;2023-05-12T06:41:53;101138.66;;;14.63;55.48
31092;BME280;67728;53.122;12.776;2023-05-12T06:43:24;101148.09;;;14.69;56.44
31092;BME280;67728;53.122;12.776;2023-05-12T06:44:56;101145.13;;;14.82;54.44
31092;BME280;67728;53.122;12.776;2023-05-12T06:46:29;101149.31;;;14.89;55.68
31092;BME280;67728;53.122;12.776;2023-05-12T06:48:03;101145.75;;;14.92;56.05
31092;BME280;67728;53.122;12.776;2023-05-12T06:49:35;101148.16;;;15.32;56.05
31092;BME280;67728;53.122;12.776;2023-05-12T06:51:08;101144.25;;;15.46;55.01
31092;BME280;67728;53.122;12.776;2023-05-12T06:52:39;101144.69;;;15.62;53.84
31092;BME280;67728;53.122;12.776;2023-05-12T06:54:11;101154.34;;;15.89;52.51
31092;BME280;67728;53.122;12.776;2023-05-12T06:55:42;101153.16;;;15.99;54.68
31092;BME280;67728;53.122;12.776;2023-05-12T06:57:15;101150.31;;;16.33;50.50
31092;BME280;67728;53.122;12.776;2023-05-12T06:58:47;101154.16;;;16.49;52.36
31092;BME280;67728;53.122;12.776;2023-05-12T07:00:19;101142.94;;;16.72;51.17
31092;BME280;67728;53.122;12.776;2023-05-12T07:01:51;101154.41;;;17.19;52.24
31092;BME280;67728;53.122;12.776;2023-05-12T07:03:24;101156.00;;;16.98;50.50
31092;BME280;67728;53.122;12.776;2023-05-12T07:04:56;101157.84;;;17.21;48.55
31092;BME280;67728;53.122;12.776;2023-05-12T07:06:27;101151.34;;;17.06;49.39
31092;BME280;67728;53.122;12.776;2023-05-12T07:07:59;101155.63;;;17.33;50.11
31092;BME280;67728;53.122;12.776;2023-05-12T07:09:30;101149.66;;;17.76;46.90
31092;BME280;67728;53.122;12.776;2023-05-12T07:11:02;101149.16;;;17.44;48.03
31092;BME280;67728;53.122;12.776;2023-05-12T07:12:34;101148.78;;;17.53;46.46
31092;BME280;67728;53.122;12.776;2023-05-12T07:14:06;101149.78;;;18.18;46.72
31092;BME280;67728;53.122;12.776;2023-05-12T07:15:38;101148.22;;;17.45;52.21
31092;BME280;67728;53.122;12.776;2023-05-12T07:17:09;101145.75;;;18.10;46.00
31092;BME280;67728;53.122;12.776;2023-05-12T07:18:42;101144.47;;;18.20;45.44
31092;BME280;67728;53.122;12.776;2023-05-12T07:20:14;101139.19;;;18.20;46.16
31092;BME280;67728;53.122;12.776;2023-05-12T07:21:46;101148.06;;;18.17;47.22
31092;BME280;67728;53.122;12.776;2023-05-12T07:23:17;101146.03;;;18.45;47.98
31092;BME280;67728;53.122;12.776;2023-05-12T07:24:49;101149.16;;;18.33;45.73
31092;BME280;67728;53.122;12.776;2023-05-12T07:26:21;101149.28;;;18.30;48.81
31092;BME280;67728;53.122;12.776;2023-05-12T07:27:53;101148.69;;;18.24;47.31
31092;BME280;67728;53.122;12.776;2023-05-12T07:29:25;101140.31;;;18.58;46.00
31092;BME280;67728;53.122;12.776;2023-05-12T07:30:56;101141.00;;;18.83;43.89
31092;BME280;67728;53.122;12.776;2023-05-12T07:32:28;101138.09;;;18.89;44.61
31092;BME280;67728;53.122;12.776;2023-05-12T07:34:01;101144.00;;;18.74;43.86
31092;BME280;67728;53.122;12.776;2023-05-12T07:35:33;101143.25;;;18.92;42.93
31092;BME280;67728;53.122;12.776;2023-05-12T07:37:05;101136.31;;;18.69;42.34
31092;BME280;67728;53.122;12.776;2023-05-12T07:38:36;101137.31;;;19.07;46.17
31092;BME280;67728;53.122;12.776;2023-05-12T07:40:08;101142.16;;;19.16;46.59
31092;BME280;67728;53.122;12.776;2023-05-12T07:41:40;101144.53;;;18.82;43.10
31092;BME280;67728;53.122;12.776;2023-05-12T07:43:12;101141.38;;;18.94;43.83
31092;BME280;67728;53.122;12.776;2023-05-12T07:44:43;101141.91;;;18.82;43.40
31092;BME280;67728;53.122;12.776;2023-05-12T07:46:15;101142.28;;;19.72;45.01
31092;BME280;67728;53.122;12.776;2023-05-12T07:47:47;101137.72;;;19.37;43.17
31092;BME280;67728;53.122;12.776;2023-05-12T07:49:20;101141.88;;;19.42;41.55
31092;BME280;67728;53.122;12.776;2023-05-12T07:50:52;101138.94;;;20.23;43.58
31092;BME280;67728;53.122;12.776;2023-05-12T07:52:24;101146.97;;;20.39;43.07
31092;BME280;67728;53.122;12.776;2023-05-12T07:53:55;101147.75;;;20.05;42.73